Terminal Aerodrome Forecast
Issued by NWS

Home | Current Version | Previous Version | Text Only | Print | Product List | Glossary On
Versions: 1 2 3 4 5 6 7 8 9 10 11 12 13 14 15
000
FTUS44 KLZK 292300
TAFHOT
TAF
KHOT 292336Z 3000/3024 26006KT P6SM BKN150
     FM300300 32003KT P6SM BKN100
      TEMPO 3004/3008 5SM TSRA BR OVC025CB
     FM300900 06003KT P6SM SKC
     FM301500 10006KT P6SM SKC=

USA.gov is the U.S. government's official web portal to all federal, state and local government web resources and services.